createdAt,value
2019-05-03T00:00:59.716Z,40.17
2019-05-03T00:06:03.337Z,40.03
2019-05-03T00:11:05.071Z,42.73
2019-05-03T00:16:23.895Z,39.93
2019-05-03T00:21:25.566Z,41.67
2019-05-03T00:26:27.147Z,44.27
2019-05-03T00:31:29.047Z,42.33
2019-05-03T00:36:32.939Z,39.40
2019-05-03T00:41:34.651Z,43.10
2019-05-03T00:46:36.107Z,44.17
2019-05-03T00:51:37.703Z,35.03
2019-05-03T00:56:43.967Z,35.80
2019-05-03T01:01:43.750Z,36.87
2019-05-03T01:06:45.327Z,38.60
2019-05-03T01:11:46.914Z,34.57
2019-05-03T01:16:48.499Z,36.90
2019-05-03T01:21:51.527Z,34.83
2019-05-03T01:26:53.142Z,37.53
2019-05-03T01:31:54.619Z,38.13
2019-05-03T01:36:56.175Z,39.23
2019-05-03T01:41:57.649Z,39.30
2019-05-03T01:47:02.308Z,38.73
2019-05-03T01:52:14.927Z,37.50
2019-05-03T01:57:16.401Z,36.90
2019-05-03T02:02:28.831Z,33.37
2019-05-03T02:07:31.646Z,35.27
2019-05-03T02:12:33.194Z,34.47
2019-05-03T02:17:34.782Z,34.83
2019-05-03T02:22:36.369Z,31.63
2019-05-03T02:27:37.841Z,33.97
2019-05-03T02:32:39.407Z,30.07
2019-05-03T02:37:43.854Z,33.53
2019-05-03T02:43:05.669Z,31.73
2019-05-03T02:48:12.172Z,27.90
2019-05-03T02:53:15.221Z,29.90
2019-05-03T02:58:17.145Z,38.77
2019-05-03T03:03:19.059Z,32.57
2019-05-03T03:08:22.146Z,29.13
2019-05-03T03:13:28.100Z,32.23
2019-05-03T03:18:36.420Z,33.40
2019-05-03T03:23:56.265Z,28.43
2019-05-03T03:29:06.935Z,26.60
2019-05-03T03:34:10.817Z,26.23
2019-05-03T03:39:14.974Z,27.40
2019-05-03T03:44:20.047Z,22.17
2019-05-03T03:49:21.776Z,28.33
2019-05-03T03:54:25.802Z,31.70
2019-05-03T03:59:28.158Z,31.73
2019-05-03T04:04:30.131Z,28.53
2019-05-03T04:09:31.949Z,30.17
2019-05-03T04:14:36.694Z,30.33
2019-05-03T04:19:40.390Z,41.07
2019-05-03T04:24:42.180Z,34.17
2019-05-03T04:29:45.410Z,38.53
2019-05-03T04:34:47.232Z,39.67
2019-05-03T04:39:48.749Z,43.53
2019-05-03T04:44:50.283Z,38.47
2019-05-03T04:49:51.815Z,46.03
2019-05-03T04:54:56.270Z,40.00
2019-05-03T04:59:58.420Z,63.13
2019-05-03T05:04:59.905Z,37.57
2019-05-03T05:10:05.171Z,41.57
2019-05-03T05:15:07.226Z,36.53
2019-05-03T05:20:24.875Z,34.93
2019-05-03T05:25:28.706Z,35.30
2019-05-03T05:30:31.195Z,50.07
2019-05-03T05:35:32.793Z,63.47
2019-05-03T05:40:35.022Z,134.83
2019-05-03T05:45:36.593Z,31.37
2019-05-03T05:50:44.761Z,32.20
2019-05-03T05:55:47.933Z,34.20
2019-05-03T06:00:55.160Z,33.40
2019-05-03T06:05:58.730Z,34.00
2019-05-03T06:11:05.175Z,45.37
2019-05-03T06:16:08.787Z,39.60
2019-05-03T06:21:15.206Z,43.33
2019-05-03T06:26:35.340Z,40.40
2019-05-03T06:31:40.086Z,35.37
2019-05-03T06:36:44.281Z,37.73
2019-05-03T06:41:45.955Z,38.00
2019-05-03T06:46:49.544Z,41.23
2019-05-03T06:51:51.173Z,36.77
2019-05-03T06:56:52.700Z,38.13
2019-05-03T07:02:05.702Z,42.30
2019-05-03T07:07:07.371Z,40.43
2019-05-03T07:12:10.056Z,43.10
2019-05-03T07:17:11.681Z,42.53
2019-05-03T07:22:15.131Z,46.27
2019-05-03T07:27:16.591Z,47.57
2019-05-03T07:32:18.227Z,45.00
2019-05-03T07:37:19.700Z,44.60
2019-05-03T07:42:22.274Z,49.23
2019-05-03T07:47:24.607Z,58.73
2019-05-03T07:52:26.298Z,54.97
2019-05-03T07:57:30.854Z,55.93
2019-05-03T08:02:32.765Z,58.73
2019-05-03T08:07:35.629Z,55.63
2019-05-03T08:12:37.295Z,52.30
2019-05-03T08:17:38.917Z,55.93
2019-05-03T08:22:40.442Z,47.47
2019-05-03T08:27:42.181Z,49.20
2019-05-03T08:32:48.393Z,44.50
2019-05-03T08:37:51.678Z,50.60
2019-05-03T08:42:55.022Z,45.73
2019-05-03T08:47:57.288Z,52.93
2019-05-03T08:52:58.773Z,50.53
2019-05-03T08:58:00.295Z,39.83
2019-05-03T09:03:01.774Z,45.50
2019-05-03T09:08:05.682Z,39.77
2019-05-03T09:13:07.972Z,44.73
2019-05-03T09:18:09.655Z,41.43
2019-05-03T09:23:11.311Z,36.80
2019-05-03T09:28:14.906Z,38.00
2019-05-03T09:33:16.950Z,44.77
2019-05-03T09:38:18.490Z,42.93
2019-05-03T09:43:20.180Z,42.70
2019-05-03T09:48:22.259Z,42.17
2019-05-03T09:53:25.755Z,41.03
2019-05-03T09:58:27.277Z,42.33
2019-05-03T10:03:28.886Z,39.07
2019-05-03T10:08:30.428Z,40.90
2019-05-03T10:13:32.021Z,48.33
2019-05-03T10:18:35.311Z,48.63
2019-05-03T10:23:38.796Z,48.90
2019-05-03T10:28:40.310Z,40.80
2019-05-03T10:33:45.038Z,43.53
2019-05-03T10:38:47.915Z,46.07
2019-05-03T10:43:49.391Z,38.03
2019-05-03T10:48:50.997Z,39.67
2019-05-03T10:53:54.817Z,40.07
2019-05-03T10:59:01.441Z,42.90
2019-05-03T11:04:05.326Z,39.47
2019-05-03T11:09:07.760Z,45.07
2019-05-03T11:14:09.538Z,40.17
2019-05-03T11:19:11.219Z,39.77
2019-05-03T11:24:14.724Z,27.87
2019-05-03T11:29:16.186Z,30.83
2019-05-03T11:48:34.948Z,33.13
2019-05-03T11:53:36.712Z,23.07
2019-05-03T11:58:38.184Z,25.17
2019-05-03T12:03:45.196Z,17.87
2019-05-03T12:08:46.919Z,18.43
2019-05-03T12:14:01.445Z,12.43
2019-05-03T12:18:53.962Z,21.50
2019-05-03T12:23:56.571Z,18.87
2019-05-03T12:28:58.591Z,14.93
2019-05-03T12:34:00.067Z,11.77
2019-05-03T12:39:01.538Z,13.40
2019-05-03T12:44:05.062Z,13.40
2019-05-03T12:49:07.759Z,9.47
2019-05-03T12:54:09.224Z,8.80
2019-05-03T12:59:12.621Z,10.37
2019-05-03T13:04:19.263Z,10.93
2019-05-03T13:09:20.912Z,7.43
2019-05-03T13:14:22.513Z,16.30
2019-05-03T13:19:25.769Z,15.57
2019-05-03T13:24:27.314Z,14.30
2019-05-03T13:29:28.989Z,13.47
2019-05-03T13:34:30.563Z,15.23
2019-05-03T13:39:32.346Z,15.67
2019-05-03T13:44:35.582Z,18.43
2019-05-03T13:49:37.312Z,15.83
2019-05-03T13:54:38.782Z,16.20
2019-05-03T13:59:40.270Z,20.23
2019-05-03T14:04:50.161Z,19.43
2019-05-03T14:09:45.337Z,26.73
2019-05-03T14:14:55.332Z,17.80
2019-05-03T14:19:58.404Z,15.73
2019-05-03T14:24:59.847Z,18.23
2019-05-03T14:30:07.345Z,19.30
2019-05-03T14:35:10.177Z,16.43
2019-05-03T14:40:14.508Z,10.67
2019-05-03T14:45:15.858Z,7.57
2019-05-03T14:50:17.847Z,11.37
2019-05-03T14:55:37.954Z,12.87
2019-05-03T15:00:45.486Z,13.03
2019-05-03T15:05:47.177Z,16.03
2019-05-03T15:10:48.643Z,15.97
2019-05-03T15:15:50.592Z,13.27
2019-05-03T15:20:52.076Z,16.80
2019-05-03T15:25:54.593Z,18.73
2019-05-03T15:30:56.373Z,16.27
2019-05-03T15:35:57.858Z,21.70
2019-05-03T15:40:59.362Z,20.33
2019-05-03T15:46:05.369Z,24.13
2019-05-03T15:51:06.911Z,23.07
2019-05-03T15:56:08.439Z,24.73
2019-05-03T16:01:10.121Z,25.93
2019-05-03T16:06:11.815Z,23.03
2019-05-03T16:11:14.823Z,23.93
2019-05-03T16:16:16.774Z,19.93
2019-05-03T16:21:18.630Z,13.83
2019-05-03T16:26:20.206Z,16.30
2019-05-03T16:31:24.861Z,24.00
2019-05-03T16:36:27.577Z,22.17
2019-05-03T16:41:29.061Z,28.40
2019-05-03T16:46:30.635Z,22.80
2019-05-03T16:51:32.269Z,26.53
2019-05-03T16:56:35.370Z,24.47
2019-05-03T17:01:37.102Z,23.43
2019-05-03T17:06:40.484Z,24.23
2019-05-03T17:11:41.997Z,22.80
2019-05-03T17:16:45.055Z,33.50
2019-05-03T17:21:46.795Z,28.83
2019-05-03T17:26:48.551Z,22.27
2019-05-03T17:31:50.143Z,25.83
2019-05-03T17:36:51.678Z,35.20
2019-05-03T17:42:00.909Z,50.80
2019-05-03T17:47:04.315Z,38.77
2019-05-03T17:52:05.982Z,26.40
2019-05-03T17:57:15.489Z,29.70
2019-05-03T18:02:21.788Z,24.73
2019-05-03T18:07:30.374Z,33.20
2019-05-03T18:12:31.410Z,27.73
2019-05-03T18:17:35.125Z,29.40
2019-05-03T18:22:36.658Z,28.77
2019-05-03T18:27:38.339Z,31.40
2019-05-03T18:32:50.794Z,34.37
2019-05-03T18:37:58.550Z,37.37
2019-05-03T18:43:04.984Z,34.77
2019-05-03T18:48:06.558Z,32.10
2019-05-03T18:53:08.736Z,27.77
2019-05-03T18:58:10.849Z,37.70
2019-05-03T19:03:12.682Z,35.73
2019-05-03T19:08:17.298Z,39.33
2019-05-03T19:13:26.610Z,40.27
2019-05-03T19:18:30.142Z,47.30
2019-05-03T19:23:32.079Z,60.93
2019-05-03T19:28:35.270Z,62.83
2019-05-03T19:33:37.416Z,55.60
2019-05-03T19:38:39.020Z,48.40
2019-05-03T19:43:40.599Z,55.30
2019-05-03T19:48:42.091Z,47.07
2019-05-03T19:53:45.468Z,54.50
2019-05-03T19:58:47.621Z,53.67
2019-05-03T20:04:07.658Z,53.40
2019-05-03T20:09:11.036Z,48.60
2019-05-03T20:14:14.754Z,47.90
2019-05-03T20:19:20.868Z,55.20
2019-05-03T20:24:19.491Z,41.27
2019-05-03T20:29:21.079Z,50.00
2019-05-03T20:34:24.741Z,45.53
2019-05-03T20:39:26.057Z,31.83
2019-05-03T20:44:35.239Z,35.00
2019-05-03T20:49:36.617Z,56.70
2019-05-03T20:54:38.137Z,37.30
2019-05-03T20:59:45.187Z,38.80
2019-05-03T21:04:44.746Z,41.90
2019-05-03T21:09:46.697Z,36.73
2019-05-03T21:14:48.284Z,39.43
2019-05-03T21:19:55.157Z,40.83
2019-05-03T21:25:01.541Z,34.17
2019-05-03T21:30:08.087Z,33.83
2019-05-03T21:35:09.969Z,30.20
2019-05-03T21:40:12.291Z,35.83
2019-05-03T21:45:15.978Z,42.83
2019-05-03T21:50:19.288Z,48.07
2019-05-03T21:55:20.803Z,34.17
2019-05-03T22:00:24.782Z,38.03
2019-05-03T22:05:28.158Z,34.83
2019-05-03T22:10:29.768Z,32.97
2019-05-03T22:15:34.767Z,34.53
2019-05-03T22:20:36.334Z,38.40
2019-05-03T22:25:39.802Z,35.37
2019-05-03T22:30:41.287Z,40.07
2019-05-03T22:35:44.506Z,33.27
2019-05-03T22:40:46.775Z,33.20
2019-05-03T22:45:48.382Z,36.00
2019-05-03T22:50:49.846Z,36.53
2019-05-03T22:55:51.803Z,33.67
2019-05-03T23:00:55.013Z,42.90
2019-05-03T23:05:56.766Z,41.17
2019-05-03T23:10:58.265Z,37.90
2019-05-03T23:15:59.718Z,34.23
2019-05-03T23:21:15.256Z,31.73
2019-05-03T23:26:17.280Z,32.10
2019-05-03T23:31:18.738Z,49.37
2019-05-03T23:36:32.516Z,38.23
2019-05-03T23:41:24.527Z,32.47
2019-05-03T23:46:28.106Z,32.07
2019-05-03T23:51:47.982Z,33.33
2019-05-03T23:56:49.509Z,31.13
